Clare Christine — V2DT7 — position and weather

sailwx.info

Track history (hours):
 
Tides and Currents Weather Stations Pressure Air Temp Water Temp Dewpoint Dewpoint Depression Visibility Wind Speed Wind Dir Waves Ship Positions

Clare Christine

Last reported at 2016-May-27 07:31 UTC. Time now 2016-May-27 08:28 UTC.
Position N 52°24' E 004°52'.

Length 89 m; draft 5.3 m.

Type: Cargo ship. MMSI: 305379000.

Date/timePositionNaut miles runAvg speedWind from/ knotsBaromVisibWave heightAir tempDewpointWater temp
2016-May-27 07:31N 52°24' E 004°52'0 0.0
2016-May-27 06:31N 52°24' E 004°52'0 0.0
2016-May-27 05:31N 52°24' E 004°52'0 0.0
2016-May-27 04:31N 52°24' E 004°52'0 0.0
2016-May-27 03:31N 52°24' E 004°52'0 0.0
2016-May-27 02:31N 52°24' E 004°52'0 0.0
2016-May-27 01:31N 52°24' E 004°52'0 0.0
2016-May-27 00:31N 52°24' E 004°52'0 0.0
2016-May-26 23:31N 52°24' E 004°52'0 0.0
2016-May-26 22:31N 52°24' E 004°52'0 0.0
2016-May-26 21:31N 52°24' E 004°52'0 0.0
2016-May-26 20:31N 52°24' E 004°52'0 0.0
2016-May-26 19:31N 52°24' E 004°52'0 0.0
2016-May-26 18:31N 52°24' E 004°52'0 0.0
2016-May-26 17:31N 52°24' E 004°52'0 0.0
2016-May-26 16:31N 52°24' E 004°52'0 0.0
2016-May-26 15:31N 52°24' E 004°52'0 0.0
2016-May-26 14:31N 52°24' E 004°52'0 0.4
2016-May-26 13:33N 52°25' E 004°52'9 9.1
2016-May-26 12:33N 52°28' E 004°38'5 5.2
2016-May-26 11:33N 52°28' E 004°29'9 9.0
2016-May-26 10:33N 52°27' E 004°15'9 8.4
2016-May-26 09:31N 52°26' E 004°01'0 0.1
2016-May-26 08:31N 52°26' E 004°01'0 0.0
2016-May-26 07:31N 52°26' E 004°01'0 0.0
2016-May-26 06:22N 52°26' E 004°01'0 0.0
2016-May-26 05:31N 52°26' E 004°01'0 0.0
2016-May-26 04:07N 52°26' E 004°01'0 0.1
2016-May-26 03:31N 52°26' E 004°01'0 0.1
2016-May-26 02:31N 52°26' E 004°01'0 0.0
2016-May-26 01:31N 52°26' E 004°00'0 0.0
2016-May-26 00:31N 52°26' E 004°00'0 0.0
2016-May-25 23:31N 52°26' E 004°00'0 0.0
2016-May-25 22:31N 52°26' E 004°01'0 0.1
2016-May-25 21:25N 52°26' E 004°01'0 0.1
2016-May-25 20:31N 52°26' E 004°01'0 0.1
2016-May-25 19:31N 52°26' E 004°01'0 0.0
2016-May-25 18:31N 52°26' E 004°01'0 0.0
2016-May-25 17:28N 52°26' E 004°01'0 0.0
2016-May-25 16:13N 52°26' E 004°01'0 0.1
2016-May-25 15:31N 52°26' E 004°01'5 4.8
2016-May-25 14:33N 52°24' E 003°54'68 9.7
2016-May-25 07:30N 52°44' E 002°06'910.0
2016-May-25 06:33N 52°48' E 001°52'9 8.8
2016-May-25 05:33N 52°54' E 001°40'8 7.8
2016-May-25 04:33N 52°58' E 001°30'7 7.1
2016-May-25 03:33N 53°02' E 001°20'7 7.0
2016-May-25 02:33N 53°04' E 001°09'7 7.4
2016-May-25 01:33N 53°07' E 000°57'8 7.6
2016-May-25 00:29N 53°13' E 000°47'5 5.7
2016-May-24 23:33N 53°12' E 000°38'1010.1
2016-May-24 22:33N 53°04' E 000°29'10 9.7
2016-May-24 21:33N 52°57' E 000°17'8 8.3
2016-May-24 20:33N 52°56' E 000°04'3 3.5
2016-May-24 19:33N 52°58' W 000°01'0 0.3
2016-May-24 18:33N 52°58' W 000°01'0 0.0
2016-May-24 17:33N 52°58' W 000°01'0 0.0
2016-May-24 16:33N 52°58' W 000°01'0 0.0
2016-May-24 15:33N 52°58' W 000°01'0 0.0
2016-May-24 14:33N 52°58' W 000°01'0 0.0
2016-May-24 13:33N 52°58' W 000°01'0 0.0
2016-May-24 12:33N 52°58' W 000°01'0 0.0
2016-May-24 11:33N 52°58' W 000°01'0 0.0
2016-May-24 10:33N 52°58' W 000°01'0 0.0
2016-May-24 09:33N 52°58' W 000°01'0 0.0
2016-May-24 08:33N 52°58' W 000°01'0 0.0
2016-May-24 07:33N 52°58' W 000°01'0 0.0
2016-May-24 06:33N 52°58' W 000°01'0 0.0
2016-May-24 05:33N 52°58' W 000°01'0 0.0
2016-May-24 04:33N 52°58' W 000°01'0 0.0
2016-May-24 03:33N 52°58' W 000°01'0 0.0
2016-May-24 02:33N 52°58' W 000°01'0 0.0
2016-May-24 01:33N 52°58' W 000°01'0 0.0
2016-May-24 00:33N 52°58' W 000°01'0 0.0
2016-May-23 23:29N 52°58' W 000°01'0 0.0
2016-May-23 22:33N 52°58' W 000°01'0 0.0
2016-May-23 21:32N 52°58' W 000°01'0 0.0
2016-May-23 20:32N 52°58' W 000°01'0 0.0
2016-May-23 19:33N 52°58' W 000°01'0 0.0
2016-May-23 18:26N 52°58' W 000°01'0 0.0
2016-May-23 17:33N 52°58' W 000°01'0 0.0
2016-May-23 16:34N 52°58' W 000°01'0 0.0
2016-May-23 15:28N 52°58' W 000°01'0 0.0
2016-May-23 14:32N 52°58' W 000°01'0 0.0
2016-May-23 13:33N 52°58' W 000°01'0 0.0
2016-May-23 12:27N 52°58' W 000°01'0 0.0
2016-May-23 11:33N 52°58' W 000°01'0 0.0
2016-May-23 10:33N 52°58' W 000°01'0 0.0
2016-May-23 09:33N 52°58' W 000°01'0 0.0
2016-May-23 08:33N 52°58' W 000°01'0 0.0
2016-May-23 07:34N 52°58' W 000°01'0 0.0
2016-May-23 06:33N 52°58' W 000°01'0 0.0
2016-May-23 05:33N 52°58' W 000°01'0 0.0
2016-May-23 04:33N 52°58' W 000°01'0 0.0
2016-May-23 03:33N 52°58' W 000°01'0 0.0
2016-May-23 02:33N 52°58' W 000°01'0 0.0
2016-May-23 01:33N 52°58' W 000°01'0 0.0
2016-May-23 00:33N 52°58' W 000°01'0 0.0
2016-May-22 23:33N 52°58' W 000°01'0 0.0
2016-May-22 22:33N 52°58' W 000°01'0 0.0
2016-May-22 21:33N 52°58' W 000°01'0 0.0
2016-May-22 20:33N 52°58' W 000°01'0 0.0
2016-May-22 19:33N 52°58' W 000°01'0 0.0
2016-May-22 18:33N 52°58' W 000°01'3 3.4
2016-May-22 17:34N 52°56' E 000°03'7 6.8
2016-May-22 16:33N 52°58' E 000°14'3 2.8
2016-May-22 15:32N 52°58' E 000°18'0 0.0
2016-May-22 14:33N 52°58' E 000°18'0 0.0
2016-May-22 13:32N 52°58' E 000°18'0 0.0
2016-May-22 12:30N 52°58' E 000°18'0 0.1
2016-May-22 11:32N 52°58' E 000°19'0 0.0
2016-May-22 10:29N 52°58' E 000°19'0 0.0
2016-May-22 09:27N 52°58' E 000°19'0 0.0
2016-May-22 08:33N 52°58' E 000°19'0 0.0
2016-May-22 07:32N 52°58' E 000°19'0 0.1
2016-May-22 06:33N 52°58' E 000°18'0 0.0
2016-May-22 05:20N 52°58' E 000°18'0 0.0
2016-May-22 04:32N 52°58' E 000°18'0 0.0
2016-May-22 03:32N 52°58' E 000°18'0 0.0
2016-May-22 02:32N 52°58' E 000°18'0 0.1
2016-May-22 01:20N 52°58' E 000°19'0 0.0
2016-May-22 00:29N 52°58' E 000°19'0 0.0
2016-May-21 23:32N 52°58' E 000°19'0 0.0
2016-May-21 22:29N 52°58' E 000°19'0 0.0
2016-May-21 21:32N 52°58' E 000°19'0 0.0
2016-May-21 20:32N 52°58' E 000°19'0 0.0
2016-May-21 19:32N 52°58' E 000°19'0 0.0
2016-May-21 18:32N 52°58' E 000°19'5 5.2
2016-May-21 17:34N 53°02' E 000°25'1212.1
2016-May-21 16:34N 53°11' E 000°37'7 7.4
2016-May-21 15:33N 53°11' E 000°50'1111.3
2016-May-21 14:33N 53°03' E 001°04'1212.4
2016-May-21 13:33N 52°57' E 001°22'1313.0
2016-May-21 12:33N 52°51' E 001°41'1211.5
2016-May-21 11:33N 52°44' E 001°55'1111.5
2016-May-21 10:34N 52°33' E 001°52'10 9.9
2016-May-21 09:34N 52°23' E 001°49'9 9.2
2016-May-21 08:34N 52°14' E 001°46'9 8.8
2016-May-21 07:34N 52°07' E 001°38'9 9.0
2016-May-21 06:34N 51°59' E 001°30'3 3.0
2016-May-21 05:31N 51°57' E 001°26'0 0.0
2016-May-21 04:31N 51°57' E 001°26'0 0.0
2016-May-21 03:31N 51°57' E 001°26'0 0.0
2016-May-21 02:31N 51°57' E 001°26'0 0.0
2016-May-21 01:31N 51°57' E 001°26'0 0.0
2016-May-21 00:31N 51°57' E 001°26'0 0.0
2016-May-20 23:31N 51°57' E 001°26'0 0.0
2016-May-20 22:31N 51°57' E 001°26'0 0.1
2016-May-20 21:31N 51°57' E 001°26'0 0.0
2016-May-20 20:31N 51°57' E 001°26'0 0.0
2016-May-20 19:31N 51°57' E 001°26'0 0.0
2016-May-20 18:31N 51°57' E 001°26'0 0.1
2016-May-20 17:31N 51°57' E 001°26'0 0.1
2016-May-20 16:31N 51°57' E 001°26'0 0.0
2016-May-20 15:31N 51°57' E 001°26'0 0.0
2016-May-20 14:31N 51°57' E 001°26'0 0.0
2016-May-20 13:31N 51°57' E 001°26'0 0.0
2016-May-20 12:31N 51°57' E 001°26'0 0.0
2016-May-20 11:31N 51°57' E 001°26'0 0.0
2016-May-20 10:31N 51°57' E 001°26'0 0.1
2016-May-20 09:31N 51°57' E 001°26'0 0.0
2016-May-20 08:31N 51°57' E 001°26'0 0.0
2016-May-20 07:31N 51°57' E 001°26'0 0.0
2016-May-20 06:31N 51°57' E 001°26'0 0.1
2016-May-20 05:31N 51°57' E 001°26'0 0.1
2016-May-20 04:31N 51°57' E 001°26'0 0.0
2016-May-20 03:31N 51°57' E 001°26'0 0.0
2016-May-20 02:31N 51°57' E 001°26'0 0.0
2016-May-20 01:31N 51°57' E 001°26'0 0.0
2016-May-20 00:31N 51°57' E 001°26'0 0.0
2016-May-19 23:31N 51°57' E 001°26'0 0.0
2016-May-19 22:31N 51°57' E 001°26'0 0.0
2016-May-19 21:31N 51°57' E 001°26'0 0.1
2016-May-19 20:31N 51°57' E 001°26'0 0.1
2016-May-19 19:31N 51°57' E 001°26'0 0.0
2016-May-19 18:31N 51°57' E 001°26'0 0.0
2016-May-19 17:31N 51°57' E 001°26'0 0.1
2016-May-19 16:31N 51°57' E 001°26'0 0.0
2016-May-19 15:31N 51°57' E 001°26'0 0.0
2016-May-19 14:31N 51°57' E 001°26'0 0.0
2016-May-19 13:31N 51°57' E 001°26'0 0.0
2016-May-19 12:31N 51°57' E 001°26'0 0.0
2016-May-19 11:31N 51°57' E 001°26'0 0.0
2016-May-19 10:31N 51°57' E 001°26'0 0.1
2016-May-19 09:31N 51°57' E 001°26'0 0.0
2016-May-19 08:31N 51°57' E 001°26'0 0.0
2016-May-19 07:31N 51°57' E 001°26'0 0.0
2016-May-19 06:31N 51°57' E 001°26'0 0.0
2016-May-19 05:31N 51°57' E 001°26'0 0.0
2016-May-19 04:31N 51°57' E 001°26'0 0.0
2016-May-19 03:31N 51°57' E 001°26'0 0.1
2016-May-19 02:31N 51°57' E 001°26'0 0.0
2016-May-19 01:31N 51°57' E 001°26'0 0.0
2016-May-19 00:31N 51°57' E 001°26'0 0.0
2016-May-18 23:31N 51°57' E 001°26'0 0.0
2016-May-18 22:31N 51°57' E 001°26'0 0.1
2016-May-18 21:31N 51°57' E 001°26'0 0.1
2016-May-18 20:31N 51°57' E 001°26'0 0.0
2016-May-18 19:31N 51°57' E 001°26'2 1.7
2016-May-18 18:33N 51°56' E 001°24'7 7.3
2016-May-18 17:33N 51°60' E 001°14'4 3.5
2016-May-18 16:32N 52°02' E 001°09'0 0.0
2016-May-18 15:32N 52°02' E 001°09'0 0.0
2016-May-18 14:32N 52°02' E 001°09'0 0.0
2016-May-18 13:32N 52°02' E 001°09'0 0.0
2016-May-18 12:32N 52°02' E 001°09'0 0.0
2016-May-18 11:32N 52°02' E 001°09'0 0.0
2016-May-18 10:29N 52°02' E 001°09'0 0.0
2016-May-18 09:32N 52°02' E 001°09'0 0.0
2016-May-18 08:32N 52°02' E 001°09'0 0.1
2016-May-18 07:32N 52°02' E 001°10'0 0.1
2016-May-18 06:29N 52°02' E 001°09'0 0.0
2016-May-18 05:29N 52°02' E 001°09'0 0.0
2016-May-18 04:32N 52°02' E 001°09'0 0.0
2016-May-18 03:32N 52°02' E 001°09'0 0.0
2016-May-18 02:32N 52°02' E 001°09'0 0.0
2016-May-18 01:32N 52°02' E 001°09'0 0.0
2016-May-18 00:29N 52°02' E 001°09'0 0.0
2016-May-17 23:32N 52°02' E 001°09'0 0.0
2016-May-17 22:32N 52°02' E 001°09'0 0.0
2016-May-17 21:32N 52°02' E 001°09'0 0.0
2016-May-17 20:32N 52°02' E 001°09'0 0.0
2016-May-17 19:32N 52°02' E 001°09'0 0.0
2016-May-17 18:32N 52°02' E 001°09'0 0.0
2016-May-17 17:32N 52°02' E 001°09'0 0.0
2016-May-17 16:32N 52°02' E 001°09'0 0.0
2016-May-17 15:26N 52°02' E 001°09'0 0.0
2016-May-17 14:32N 52°02' E 001°09'0 0.0
2016-May-17 13:32N 52°02' E 001°09'0 0.0
2016-May-17 12:32N 52°02' E 001°09'0 0.0
2016-May-17 11:29N 52°02' E 001°09'0 0.0
2016-May-17 10:29N 52°02' E 001°09'0 0.0
2016-May-17 09:32N 52°02' E 001°09'0 0.0
2016-May-17 08:32N 52°02' E 001°09'0 0.0
2016-May-17 07:32N 52°02' E 001°09'  
Track history (hours):
 
Tides and Currents Weather Stations Pressure Air Temp Water Temp Dewpoint Dewpoint Depression Visibility Wind Speed Wind Dir Waves Ship Positions

Clare Christine

Last reported at 2016-May-27 07:31 UTC. Time now 2016-May-27 08:28 UTC.
Position N 52°24' E 004°52'.

Length 89 m; draft 5.3 m.

Type: Cargo ship. MMSI: 305379000.

Date/timePositionNaut miles runAvg speedWind from/ knotsBaromVisibWave heightAir tempDewpointWater temp
2016-May-27 07:31N 52°24' E 004°52'0 0.0
2016-May-27 06:31N 52°24' E 004°52'0 0.0
2016-May-27 05:31N 52°24' E 004°52'0 0.0
2016-May-27 04:31N 52°24' E 004°52'0 0.0
2016-May-27 03:31N 52°24' E 004°52'0 0.0
2016-May-27 02:31N 52°24' E 004°52'0 0.0
2016-May-27 01:31N 52°24' E 004°52'0 0.0
2016-May-27 00:31N 52°24' E 004°52'0 0.0
2016-May-26 23:31N 52°24' E 004°52'0 0.0
2016-May-26 22:31N 52°24' E 004°52'0 0.0
2016-May-26 21:31N 52°24' E 004°52'0 0.0
2016-May-26 20:31N 52°24' E 004°52'0 0.0
2016-May-26 19:31N 52°24' E 004°52'0 0.0
2016-May-26 18:31N 52°24' E 004°52'0 0.0
2016-May-26 17:31N 52°24' E 004°52'0 0.0
2016-May-26 16:31N 52°24' E 004°52'0 0.0
2016-May-26 15:31N 52°24' E 004°52'0 0.0
2016-May-26 14:31N 52°24' E 004°52'0 0.4
2016-May-26 13:33N 52°25' E 004°52'9 9.1
2016-May-26 12:33N 52°28' E 004°38'5 5.2
2016-May-26 11:33N 52°28' E 004°29'9 9.0
2016-May-26 10:33N 52°27' E 004°15'9 8.4
2016-May-26 09:31N 52°26' E 004°01'0 0.1
2016-May-26 08:31N 52°26' E 004°01'0 0.0
2016-May-26 07:31N 52°26' E 004°01'0 0.0
2016-May-26 06:22N 52°26' E 004°01'0 0.0
2016-May-26 05:31N 52°26' E 004°01'0 0.0
2016-May-26 04:07N 52°26' E 004°01'0 0.1
2016-May-26 03:31N 52°26' E 004°01'0 0.1
2016-May-26 02:31N 52°26' E 004°01'0 0.0
2016-May-26 01:31N 52°26' E 004°00'0 0.0
2016-May-26 00:31N 52°26' E 004°00'0 0.0
2016-May-25 23:31N 52°26' E 004°00'0 0.0
2016-May-25 22:31N 52°26' E 004°01'0 0.1
2016-May-25 21:25N 52°26' E 004°01'0 0.1
2016-May-25 20:31N 52°26' E 004°01'0 0.1
2016-May-25 19:31N 52°26' E 004°01'0 0.0
2016-May-25 18:31N 52°26' E 004°01'0 0.0
2016-May-25 17:28N 52°26' E 004°01'0 0.0
2016-May-25 16:13N 52°26' E 004°01'0 0.1
2016-May-25 15:31N 52°26' E 004°01'5 4.8
2016-May-25 14:33N 52°24' E 003°54'68 9.7
2016-May-25 07:30N 52°44' E 002°06'910.0
2016-May-25 06:33N 52°48' E 001°52'9 8.8
2016-May-25 05:33N 52°54' E 001°40'8 7.8
2016-May-25 04:33N 52°58' E 001°30'7 7.1
2016-May-25 03:33N 53°02' E 001°20'7 7.0
2016-May-25 02:33N 53°04' E 001°09'7 7.4
2016-May-25 01:33N 53°07' E 000°57'8 7.6
2016-May-25 00:29N 53°13' E 000°47'5 5.7
2016-May-24 23:33N 53°12' E 000°38'1010.1
2016-May-24 22:33N 53°04' E 000°29'10 9.7
2016-May-24 21:33N 52°57' E 000°17'8 8.3
2016-May-24 20:33N 52°56' E 000°04'3 3.5
2016-May-24 19:33N 52°58' W 000°01'0 0.3
2016-May-24 18:33N 52°58' W 000°01'0 0.0
2016-May-24 17:33N 52°58' W 000°01'0 0.0
2016-May-24 16:33N 52°58' W 000°01'0 0.0
2016-May-24 15:33N 52°58' W 000°01'0 0.0
2016-May-24 14:33N 52°58' W 000°01'0 0.0
2016-May-24 13:33N 52°58' W 000°01'0 0.0
2016-May-24 12:33N 52°58' W 000°01'0 0.0
2016-May-24 11:33N 52°58' W 000°01'0 0.0
2016-May-24 10:33N 52°58' W 000°01'0 0.0
2016-May-24 09:33N 52°58' W 000°01'0 0.0
2016-May-24 08:33N 52°58' W 000°01'0 0.0
2016-May-24 07:33N 52°58' W 000°01'0 0.0
2016-May-24 06:33N 52°58' W 000°01'0 0.0
2016-May-24 05:33N 52°58' W 000°01'0 0.0
2016-May-24 04:33N 52°58' W 000°01'0 0.0
2016-May-24 03:33N 52°58' W 000°01'0 0.0
2016-May-24 02:33N 52°58' W 000°01'0 0.0
2016-May-24 01:33N 52°58' W 000°01'0 0.0
2016-May-24 00:33N 52°58' W 000°01'0 0.0
2016-May-23 23:29N 52°58' W 000°01'0 0.0
2016-May-23 22:33N 52°58' W 000°01'0 0.0
2016-May-23 21:32N 52°58' W 000°01'0 0.0
2016-May-23 20:32N 52°58' W 000°01'0 0.0
2016-May-23 19:33N 52°58' W 000°01'0 0.0
2016-May-23 18:26N 52°58' W 000°01'0 0.0
2016-May-23 17:33N 52°58' W 000°01'0 0.0
2016-May-23 16:34N 52°58' W 000°01'0 0.0
2016-May-23 15:28N 52°58' W 000°01'0 0.0
2016-May-23 14:32N 52°58' W 000°01'0 0.0
2016-May-23 13:33N 52°58' W 000°01'0 0.0
2016-May-23 12:27N 52°58' W 000°01'0 0.0
2016-May-23 11:33N 52°58' W 000°01'0 0.0
2016-May-23 10:33N 52°58' W 000°01'0 0.0
2016-May-23 09:33N 52°58' W 000°01'0 0.0
2016-May-23 08:33N 52°58' W 000°01'0 0.0
2016-May-23 07:34N 52°58' W 000°01'0 0.0
2016-May-23 06:33N 52°58' W 000°01'0 0.0
2016-May-23 05:33N 52°58' W 000°01'0 0.0
2016-May-23 04:33N 52°58' W 000°01'0 0.0
2016-May-23 03:33N 52°58' W 000°01'0 0.0
2016-May-23 02:33N 52°58' W 000°01'0 0.0
2016-May-23 01:33N 52°58' W 000°01'0 0.0
2016-May-23 00:33N 52°58' W 000°01'0 0.0
2016-May-22 23:33N 52°58' W 000°01'0 0.0
2016-May-22 22:33N 52°58' W 000°01'0 0.0
2016-May-22 21:33N 52°58' W 000°01'0 0.0
2016-May-22 20:33N 52°58' W 000°01'0 0.0
2016-May-22 19:33N 52°58' W 000°01'0 0.0
2016-May-22 18:33N 52°58' W 000°01'3 3.4
2016-May-22 17:34N 52°56' E 000°03'7 6.8
2016-May-22 16:33N 52°58' E 000°14'3 2.8
2016-May-22 15:32N 52°58' E 000°18'0 0.0
2016-May-22 14:33N 52°58' E 000°18'0 0.0
2016-May-22 13:32N 52°58' E 000°18'0 0.0
2016-May-22 12:30N 52°58' E 000°18'0 0.1
2016-May-22 11:32N 52°58' E 000°19'0 0.0
2016-May-22 10:29N 52°58' E 000°19'0 0.0
2016-May-22 09:27N 52°58' E 000°19'0 0.0
2016-May-22 08:33N 52°58' E 000°19'0 0.0
2016-May-22 07:32N 52°58' E 000°19'0 0.1
2016-May-22 06:33N 52°58' E 000°18'0 0.0
2016-May-22 05:20N 52°58' E 000°18'0 0.0
2016-May-22 04:32N 52°58' E 000°18'0 0.0
2016-May-22 03:32N 52°58' E 000°18'0 0.0
2016-May-22 02:32N 52°58' E 000°18'0 0.1
2016-May-22 01:20N 52°58' E 000°19'0 0.0
2016-May-22 00:29N 52°58' E 000°19'0 0.0
2016-May-21 23:32N 52°58' E 000°19'0 0.0
2016-May-21 22:29N 52°58' E 000°19'0 0.0
2016-May-21 21:32N 52°58' E 000°19'0 0.0
2016-May-21 20:32N 52°58' E 000°19'0 0.0
2016-May-21 19:32N 52°58' E 000°19'0 0.0
2016-May-21 18:32N 52°58' E 000°19'5 5.2
2016-May-21 17:34N 53°02' E 000°25'1212.1
2016-May-21 16:34N 53°11' E 000°37'7 7.4
2016-May-21 15:33N 53°11' E 000°50'1111.3
2016-May-21 14:33N 53°03' E 001°04'1212.4
2016-May-21 13:33N 52°57' E 001°22'1313.0
2016-May-21 12:33N 52°51' E 001°41'1211.5
2016-May-21 11:33N 52°44' E 001°55'1111.5
2016-May-21 10:34N 52°33' E 001°52'10 9.9
2016-May-21 09:34N 52°23' E 001°49'9 9.2
2016-May-21 08:34N 52°14' E 001°46'9 8.8
2016-May-21 07:34N 52°07' E 001°38'9 9.0
2016-May-21 06:34N 51°59' E 001°30'3 3.0
2016-May-21 05:31N 51°57' E 001°26'0 0.0
2016-May-21 04:31N 51°57' E 001°26'0 0.0
2016-May-21 03:31N 51°57' E 001°26'0 0.0
2016-May-21 02:31N 51°57' E 001°26'0 0.0
2016-May-21 01:31N 51°57' E 001°26'0 0.0
2016-May-21 00:31N 51°57' E 001°26'0 0.0
2016-May-20 23:31N 51°57' E 001°26'0 0.0
2016-May-20 22:31N 51°57' E 001°26'0 0.1
2016-May-20 21:31N 51°57' E 001°26'0 0.0
2016-May-20 20:31N 51°57' E 001°26'0 0.0
2016-May-20 19:31N 51°57' E 001°26'0 0.0
2016-May-20 18:31N 51°57' E 001°26'0 0.1
2016-May-20 17:31N 51°57' E 001°26'0 0.1
2016-May-20 16:31N 51°57' E 001°26'0 0.0
2016-May-20 15:31N 51°57' E 001°26'0 0.0
2016-May-20 14:31N 51°57' E 001°26'0 0.0
2016-May-20 13:31N 51°57' E 001°26'0 0.0
2016-May-20 12:31N 51°57' E 001°26'0 0.0
2016-May-20 11:31N 51°57' E 001°26'0 0.0
2016-May-20 10:31N 51°57' E 001°26'0 0.1
2016-May-20 09:31N 51°57' E 001°26'0 0.0
2016-May-20 08:31N 51°57' E 001°26'0 0.0
2016-May-20 07:31N 51°57' E 001°26'0 0.0
2016-May-20 06:31N 51°57' E 001°26'0 0.1
2016-May-20 05:31N 51°57' E 001°26'0 0.1
2016-May-20 04:31N 51°57' E 001°26'0 0.0
2016-May-20 03:31N 51°57' E 001°26'0 0.0
2016-May-20 02:31N 51°57' E 001°26'0 0.0
2016-May-20 01:31N 51°57' E 001°26'0 0.0
2016-May-20 00:31N 51°57' E 001°26'0 0.0
2016-May-19 23:31N 51°57' E 001°26'0 0.0
2016-May-19 22:31N 51°57' E 001°26'0 0.0
2016-May-19 21:31N 51°57' E 001°26'0 0.1
2016-May-19 20:31N 51°57' E 001°26'0 0.1
2016-May-19 19:31N 51°57' E 001°26'0 0.0
2016-May-19 18:31N 51°57' E 001°26'0 0.0
2016-May-19 17:31N 51°57' E 001°26'0 0.1
2016-May-19 16:31N 51°57' E 001°26'0 0.0
2016-May-19 15:31N 51°57' E 001°26'0 0.0
2016-May-19 14:31N 51°57' E 001°26'0 0.0
2016-May-19 13:31N 51°57' E 001°26'0 0.0
2016-May-19 12:31N 51°57' E 001°26'0 0.0
2016-May-19 11:31N 51°57' E 001°26'0 0.0
2016-May-19 10:31N 51°57' E 001°26'0 0.1
2016-May-19 09:31N 51°57' E 001°26'0 0.0
2016-May-19 08:31N 51°57' E 001°26'0 0.0
2016-May-19 07:31N 51°57' E 001°26'0 0.0
2016-May-19 06:31N 51°57' E 001°26'0 0.0
2016-May-19 05:31N 51°57' E 001°26'0 0.0
2016-May-19 04:31N 51°57' E 001°26'0 0.0
2016-May-19 03:31N 51°57' E 001°26'0 0.1
2016-May-19 02:31N 51°57' E 001°26'0 0.0
2016-May-19 01:31N 51°57' E 001°26'0 0.0
2016-May-19 00:31N 51°57' E 001°26'0 0.0
2016-May-18 23:31N 51°57' E 001°26'0 0.0
2016-May-18 22:31N 51°57' E 001°26'0 0.1
2016-May-18 21:31N 51°57' E 001°26'0 0.1
2016-May-18 20:31N 51°57' E 001°26'0 0.0
2016-May-18 19:31N 51°57' E 001°26'2 1.7
2016-May-18 18:33N 51°56' E 001°24'7 7.3
2016-May-18 17:33N 51°60' E 001°14'4 3.5
2016-May-18 16:32N 52°02' E 001°09'0 0.0
2016-May-18 15:32N 52°02' E 001°09'0 0.0
2016-May-18 14:32N 52°02' E 001°09'0 0.0
2016-May-18 13:32N 52°02' E 001°09'0 0.0
2016-May-18 12:32N 52°02' E 001°09'0 0.0
2016-May-18 11:32N 52°02' E 001°09'0 0.0
2016-May-18 10:29N 52°02' E 001°09'0 0.0
2016-May-18 09:32N 52°02' E 001°09'0 0.0
2016-May-18 08:32N 52°02' E 001°09'0 0.1
2016-May-18 07:32N 52°02' E 001°10'0 0.1
2016-May-18 06:29N 52°02' E 001°09'0 0.0
2016-May-18 05:29N 52°02' E 001°09'0 0.0
2016-May-18 04:32N 52°02' E 001°09'0 0.0
2016-May-18 03:32N 52°02' E 001°09'0 0.0
2016-May-18 02:32N 52°02' E 001°09'0 0.0
2016-May-18 01:32N 52°02' E 001°09'0 0.0
2016-May-18 00:29N 52°02' E 001°09'0 0.0
2016-May-17 23:32N 52°02' E 001°09'0 0.0
2016-May-17 22:32N 52°02' E 001°09'0 0.0
2016-May-17 21:32N 52°02' E 001°09'0 0.0
2016-May-17 20:32N 52°02' E 001°09'0 0.0
2016-May-17 19:32N 52°02' E 001°09'0 0.0
2016-May-17 18:32N 52°02' E 001°09'0 0.0
2016-May-17 17:32N 52°02' E 001°09'0 0.0
2016-May-17 16:32N 52°02' E 001°09'0 0.0
2016-May-17 15:26N 52°02' E 001°09'0 0.0
2016-May-17 14:32N 52°02' E 001°09'0 0.0
2016-May-17 13:32N 52°02' E 001°09'0 0.0
2016-May-17 12:32N 52°02' E 001°09'0 0.0
2016-May-17 11:29N 52°02' E 001°09'0 0.0
2016-May-17 10:29N 52°02' E 001°09'0 0.0
2016-May-17 09:32N 52°02' E 001°09'0 0.0
2016-May-17 08:32N 52°02' E 001°09'0 0.0
2016-May-17 07:32N 52°02' E 001°09'  

Dump ship's entire track history